Wetterdaten: Woche 16.01.23 - 22.01.23 (KW3)
Datum Zeit Temp. Aussen Temp. o. S. Temp +5cm Feuchte Auss Luftdruck Regen Sonnenschein Regendauer Solar Windben Empfang
16.01.2023 00:00 5,9 C 5,3 C 1,2 C 86 % 998,3 hPa 0,2 l/m 0,00 h 0,13 h 0 W/m 26,3 km/h (4 Bft) 94,41 %
16.01.2023 01:00 5,5 C 4,6 C 1,3 C 86 % 997,5 hPa 0,0 l/m 0,00 h 0,00 h 0 W/m 23,6 km/h (4 Bft) 97,56 %
16.01.2023 02:00 4,8 C 3,9 C 0,9 C 88 % 996,4 hPa 0,0 l/m 0,00 h 0,00 h 0 W/m 17,7 km/h (3 Bft) 95,71 %
16.01.2023 03:00 4,6 C 3,8 C 0,8 C 89 % 995,3 hPa 0,0 l/m 0,00 h 0,00 h 0 W/m 9,5 km/h (2 Bft) 94,53 %
16.01.2023 04:00 4,3 C 3,5 C 0,5 C 89 % 993,7 hPa 0,0 l/m 0,00 h 0,00 h 0 W/m 11,8 km/h (2 Bft) 96,42 %
16.01.2023 05:00 3,9 C 3,2 C 0,1 C 90 % 992,0 hPa 0,0 l/m 0,00 h 0,00 h 0 W/m 13,5 km/h (3 Bft) 95,55 %
16.01.2023 06:00 4,3 C 3,9 C 0,9 C 91 % 990,0 hPa 0,0 l/m 0,00 h 0,00 h 0 W/m 18,6 km/h (3 Bft) 95,95 %
16.01.2023 07:00 5,0 C 4,4 C 1,2 C 89 % 988,3 hPa 0,0 l/m 0,00 h 0,07 h 0 W/m 21,8 km/h (4 Bft) 97,39 %
16.01.2023 08:00 5,3 C 4,5 C 0,9 C 88 % 986,4 hPa 0,2 l/m 0,00 h 0,53 h 4 W/m 25,8 km/h (4 Bft) 97,15 %
16.01.2023 09:00 5,2 C 4,3 C 0,6 C 89 % 984,7 hPa 0,4 l/m 0,00 h 0,63 h 11 W/m 27,5 km/h (4 Bft) 96,30 %
16.01.2023 10:00 4,9 C 4,0 C 0,6 C 91 % 983,7 hPa 0,4 l/m 0,00 h 0,90 h 30 W/m 31,1 km/h (5 Bft) 97,05 %
16.01.2023 11:00 5,0 C 4,6 C 0,6 C 90 % 982,7 hPa 0,0 l/m 0,00 h 0,07 h 73 W/m 31,9 km/h (5 Bft) 97,80 %
16.01.2023 12:00 5,5 C 5,2 C 1,6 C 88 % 981,3 hPa 0,0 l/m 0,03 h 0,07 h 112 W/m 27,4 km/h (4 Bft) 96,17 %
16.01.2023 13:00 5,4 C 4,7 C 1,0 C 89 % 979,9 hPa 0,4 l/m 0,00 h 0,70 h 48 W/m 25,4 km/h (4 Bft) 95,85 %
16.01.2023 14:00 5,2 C 4,2 C 0,6 C 91 % 978,7 hPa 0,8 l/m 0,00 h 0,73 h 37 W/m 23,8 km/h (4 Bft) 99,00 %
16.01.2023 15:00 5,0 C 3,9 C 0,9 C 93 % 978,0 hPa 1,2 l/m 0,00 h 0,93 h 20 W/m 23,6 km/h (4 Bft) 94,74 %
16.01.2023 16:00 4,8 C 3,9 C 1,1 C 95 % 977,6 hPa 1,0 l/m 0,00 h 0,83 h 10 W/m 15,9 km/h (3 Bft) 97,35 %
16.01.2023 17:00 4,8 C 3,9 C 1,1 C 96 % 977,4 hPa 0,4 l/m 0,00 h 0,47 h 0 W/m 10,3 km/h (2 Bft) 93,53 %
16.01.2023 18:00 4,7 C 3,8 C 1,1 C 96 % 977,6 hPa 0,2 l/m 0,00 h 0,13 h 0 W/m 7,9 km/h (2 Bft) 97,17 %
16.01.2023 19:00 4,5 C 3,9 C 1,1 C 97 % 977,9 hPa 0,0 l/m 0,00 h 0,00 h 0 W/m 8,0 km/h (2 Bft) 96,87 %
16.01.2023 20:00 4,5 C 3,9 C 1,1 C 97 % 978,8 hPa 0,2 l/m 0,00 h 0,67 h 0 W/m 15,8 km/h (3 Bft) 98,15 %
16.01.2023 21:00 4,1 C 3,3 C 0,6 C 96 % 979,9 hPa 0,2 l/m 0,00 h 0,87 h 0 W/m 22,2 km/h (4 Bft) 94,30 %
16.01.2023 22:00 3,9 C 3,3 C 0,6 C 95 % 981,1 hPa 0,0 l/m 0,00 h 0,70 h 0 W/m 18,8 km/h (3 Bft) 96,21 %
16.01.2023 23:00 3,8 C 3,3 C 0,6 C 95 % 982,1 hPa 0,0 l/m 0,00 h 0,07 h 0 W/m 19,1 km/h (3 Bft) 98,41 %
17.01.2023 00:00 3,5 C 2,9 C 0,3 C 95 % 982,8 hPa 0,2 l/m 0,00 h 0,80 h 0 W/m 18,8 km/h (3 Bft) 93,43 %
17.01.2023 01:00 3,2 C 2,6 C 0,0 C 95 % 983,8 hPa 1,4 l/m 0,00 h 0,87 h 0 W/m 16,8 km/h (3 Bft) 97,35 %
17.01.2023 02:00 2,8 C 2,2 C -0,2 C 96 % 984,9 hPa 0,0 l/m 0,00 h 0,03 h 0 W/m 21,5 km/h (4 Bft) 95,87 %
17.01.2023 03:00 2,6 C 2,0 C -0,7 C 95 % 985,9 hPa 0,2 l/m 0,00 h 0,50 h 0 W/m 18,8 km/h (3 Bft) 95,55 %
17.01.2023 04:00 1,8 C 1,1 C -1,0 C 95 % 986,6 hPa 0,0 l/m 0,00 h 0,00 h 0 W/m 15,2 km/h (3 Bft) 95,83 %
17.01.2023 05:00 1,7 C 1,1 C -1,1 C 96 % 987,0 hPa 0,0 l/m 0,00 h 0,17 h 0 W/m 15,6 km/h (3 Bft) 97,50 %
17.01.2023 06:00 1,3 C 0,6 C -1,5 C 96 % 987,4 hPa 0,0 l/m 0,00 h 0,00 h 0 W/m 9,1 km/h (2 Bft) 87,58 %
17.01.2023 07:00 1,0 C 0,4 C -1,7 C 96 % 987,9 hPa 0,0 l/m 0,00 h 0,00 h 0 W/m 5,7 km/h (1 Bft) 78,31 %
17.01.2023 08:00 0,5 C -0,4 C -2,2 C 96 % 988,1 hPa 0,0 l/m 0,00 h 0,00 h 8 W/m 3,3 km/h (1 Bft) 95,84 %
17.01.2023 09:00 0,4 C 0,4 C -2,0 C 96 % 988,2 hPa 0,0 l/m 0,10 h 0,00 h 48 W/m 4,6 km/h (1 Bft) 97,46 %
17.01.2023 10:00 1,1 C 1,3 C -1,7 C 95 % 988,4 hPa 0,2 l/m 0,97 h 0,00 h 187 W/m 7,5 km/h (2 Bft) 95,80 %
17.01.2023 11:00 2,8 C 4,3 C -0,9 C 91 % 988,6 hPa 0,0 l/m 0,70 h 0,00 h 212 W/m 6,9 km/h (2 Bft) 95,78 %
17.01.2023 12:00 3,5 C 6,4 C 0,1 C 86 % 988,3 hPa 0,0 l/m 0,40 h 0,00 h 159 W/m 5,5 km/h (1 Bft) 95,80 %
17.01.2023 13:00 4,7 C 8,9 C 0,8 C 79 % 988,0 hPa 0,0 l/m 0,70 h 0,00 h 209 W/m 4,5 km/h (1 Bft) 98,44 %
17.01.2023 14:00 4,2 C 4,8 C 0,5 C 79 % 987,9 hPa 0,0 l/m 0,20 h 0,00 h 105 W/m 3,2 km/h (1 Bft) 98,07 %
17.01.2023 15:00 4,0 C 3,6 C -0,4 C 78 % 988,1 hPa 0,0 l/m 0,07 h 0,00 h 51 W/m 0,6 km/h (0 Bft) 94,88 %
17.01.2023 16:00 3,1 C 0,9 C -2,1 C 80 % 988,2 hPa 0,0 l/m 0,00 h 0,00 h 16 W/m 0,0 km/h (0 Bft) 96,56 %
17.01.2023 17:00 1,6 C -0,8 C -3,3 C 83 % 988,6 hPa 0,0 l/m 0,00 h 0,00 h 0 W/m 0,1 km/h (0 Bft) 97,13 %
17.01.2023 18:00 0,1 C -1,7 C -3,9 C 85 % 989,1 hPa 0,0 l/m 0,00 h 0,00 h 0 W/m 0,1 km/h (0 Bft) 96,16 %
17.01.2023 19:00 -0,9 C -2,2 C -4,3 C 88 % 989,6 hPa 0,0 l/m 0,00 h 0,00 h 0 W/m 0,2 km/h (0 Bft) 94,91 %
17.01.2023 20:00 -1,6 C -2,8 C -4,5 C 89 % 989,9 hPa 0,0 l/m 0,00 h 0,00 h 0 W/m 0,0 km/h (0 Bft) 97,40 %
17.01.2023 21:00 -1,9 C -2,9 C -5,0 C 91 % 990,4 hPa 0,0 l/m 0,00 h 0,00 h 0 W/m 0,0 km/h (0 Bft) 96,89 %
17.01.2023 22:00 -2,1 C -3,1 C -5,0 C 92 % 990,9 hPa 0,0 l/m 0,00 h 0,00 h 0 W/m 0,1 km/h (0 Bft) 97,50 %
17.01.2023 23:00 -2,4 C -3,4 C -5,2 C 93 % 991,2 hPa 0,0 l/m 0,00 h 0,00 h 0 W/m 0,0 km/h (0 Bft) 95,40 %
18.01.2023 00:00 -2,8 C -3,8 C -5,6 C 93 % 991,3 hPa 0,0 l/m 0,00 h 0,00 h 0 W/m 0,1 km/h (0 Bft) 96,17 %
18.01.2023 01:00 -2,8 C -3,8 C -5,5 C 94 % 991,5 hPa 0,0 l/m 0,00 h 0,00 h 0 W/m 0,0 km/h (0 Bft) 96,82 %
18.01.2023 02:00 -3,3 C -4,1 C -5,6 C 94 % 991,7 hPa 0,0 l/m 0,00 h 0,00 h 0 W/m 0,4 km/h (0 Bft) 99,01 %
18.01.2023 03:00 -3,6 C -4,4 C -5,8 C 94 % 992,1 hPa 0,0 l/m 0,00 h 0,00 h 0 W/m 0,0 km/h (0 Bft) 94,45 %
18.01.2023 04:00 -3,9 C -4,3 C -5,8 C 94 % 992,5 hPa 0,0 l/m 0,00 h 0,00 h 0 W/m 0,0 km/h (0 Bft) 93,81 %
18.01.2023 05:00 -4,0 C -4,4 C -6,1 C 94 % 992,9 hPa 0,0 l/m 0,00 h 0,00 h 0 W/m 0,3 km/h (0 Bft) 98,71 %
18.01.2023 06:00 -3,9 C -4,6 C -6,1 C 94 % 993,5 hPa 0,0 l/m 0,00 h 0,00 h 0 W/m 0,0 km/h (0 Bft) 94,88 %
18.01.2023 07:00 -4,0 C -4,3 C -6,1 C 95 % 994,2 hPa 0,0 l/m 0,00 h 0,00 h 0 W/m 0,7 km/h (0 Bft) 95,84 %
18.01.2023 08:00 -3,5 C -3,8 C -5,6 C 95 % 995,1 hPa 0,0 l/m 0,00 h 0,00 h 9 W/m 1,1 km/h (1 Bft) 97,82 %
18.01.2023 09:00 -2,5 C -2,2 C -4,4 C 96 % 995,7 hPa 0,0 l/m 0,00 h 0,00 h 35 W/m 4,2 km/h (1 Bft) 97,52 %
18.01.2023 10:00 -0,9 C -0,6 C -3,0 C 95 % 996,6 hPa 0,0 l/m 0,10 h 0,00 h 100 W/m 8,9 km/h (2 Bft) 94,51 %
18.01.2023 11:00 0,6 C 2,5 C -2,6 C 92 % 997,2 hPa 0,0 l/m 0,37 h 0,00 h 152 W/m 7,7 km/h (2 Bft) 98,87 %
18.01.2023 12:00 1,9 C 4,2 C -1,4 C 86 % 997,4 hPa 0,0 l/m 0,23 h 0,00 h 140 W/m 14,3 km/h (3 Bft) 97,86 %
18.01.2023 13:00 3,5 C 9,7 C -0,5 C 80 % 997,5 hPa 0,0 l/m 0,98 h 0,00 h 322 W/m 16,8 km/h (3 Bft) 96,62 %
18.01.2023 14:00 3,8 C 5,8 C -0,1 C 79 % 997,8 hPa 0,0 l/m 0,83 h 0,00 h 205 W/m 14,6 km/h (3 Bft) 97,87 %
18.01.2023 15:00 3,5 C 3,5 C -0,5 C 80 % 998,3 hPa 0,0 l/m 0,47 h 0,00 h 86 W/m 14,3 km/h (3 Bft) 97,01 %
18.01.2023 16:00 3,0 C 2,2 C -1,0 C 81 % 998,8 hPa 0,0 l/m 0,00 h 0,00 h 16 W/m 17,9 km/h (3 Bft) 94,51 %
18.01.2023 17:00 2,1 C 1,2 C -1,9 C 82 % 999,4 hPa 0,0 l/m 0,00 h 0,00 h 0 W/m 16,4 km/h (3 Bft) 98,39 %
18.01.2023 18:00 1,5 C 0,6 C -2,2 C 83 % 999,8 hPa 0,0 l/m 0,00 h 0,00 h 0 W/m 13,6 km/h (3 Bft) 96,02 %
18.01.2023 19:00 1,2 C 0,6 C -2,5 C 84 % 1000,3 hPa 0,0 l/m 0,00 h 0,00 h 0 W/m 15,7 km/h (3 Bft) 97,30 %
18.01.2023 20:00 1,2 C 0,6 C -2,2 C 85 % 1000,9 hPa 0,0 l/m 0,00 h 0,00 h 0 W/m 18,0 km/h (3 Bft) 97,36 %
18.01.2023 21:00 1,4 C 0,7 C -2,2 C 87 % 1001,4 hPa 0,0 l/m 0,00 h 0,00 h 0 W/m 16,7 km/h (3 Bft) 94,88 %
18.01.2023 22:00 1,7 C 1,0 C -1,9 C 88 % 1001,7 hPa 0,0 l/m 0,00 h 0,00 h 0 W/m 20,1 km/h (4 Bft) 97,84 %
18.01.2023 23:00 1,4 C 0,6 C -2,2 C 90 % 1002,1 hPa 0,0 l/m 0,00 h 0,00 h 0 W/m 19,6 km/h (3 Bft) 97,11 %
19.01.2023 00:00 1,2 C 0,6 C -2,2 C 91 % 1002,4 hPa 0,0 l/m 0,00 h 0,00 h 0 W/m 19,6 km/h (3 Bft) 96,17 %
19.01.2023 01:00 1,2 C 0,6 C -2,2 C 92 % 1002,6 hPa 0,0 l/m 0,00 h 0,00 h 0 W/m 22,9 km/h (4 Bft) 91,74 %
19.01.2023 02:00 1,1 C 0,5 C -2,2 C 92 % 1002,7 hPa 0,0 l/m 0,00 h 0,00 h 0 W/m 18,6 km/h (3 Bft) 99,09 %
19.01.2023 03:00 1,0 C 0,4 C -2,2 C 92 % 1002,7 hPa 0,0 l/m 0,00 h 0,00 h 0 W/m 23,3 km/h (4 Bft) 96,72 %
19.01.2023 04:00 1,3 C 0,7 C -2,0 C 92 % 1002,7 hPa 0,0 l/m 0,00 h 0,40 h 0 W/m 20,7 km/h (4 Bft) 96,82 %
19.01.2023 05:00 1,0 C 0,2 C -2,8 C 94 % 1002,8 hPa 0,4 l/m 0,00 h 0,97 h 0 W/m 17,0 km/h (3 Bft) 97,87 %
19.01.2023 06:00 0,5 C -0,3 C -3,0 C 95 % 1003,0 hPa 0,4 l/m 0,00 h 0,63 h 0 W/m 14,7 km/h (3 Bft) 96,25 %
19.01.2023 07:00 0,6 C 0,0 C -2,7 C 97 % 1003,4 hPa 0,4 l/m 0,00 h 0,73 h 0 W/m 15,7 km/h (3 Bft) 95,38 %
19.01.2023 08:00 0,7 C 0,0 C -2,2 C 97 % 1004,2 hPa 0,4 l/m 0,00 h 0,33 h 5 W/m 15,6 km/h (3 Bft) 95,88 %
19.01.2023 09:00 0,8 C 0,4 C -2,3 C 97 % 1004,9 hPa 0,6 l/m 0,00 h 0,33 h 32 W/m 13,6 km/h (3 Bft) 98,37 %
19.01.2023 10:00 1,1 C 0,8 C -1,7 C 97 % 1005,7 hPa 0,6 l/m 0,00 h 0,00 h 54 W/m 14,6 km/h (3 Bft) 96,54 %
19.01.2023 11:00 1,4 C 1,2 C -1,4 C 97 % 1006,3 hPa 0,4 l/m 0,00 h 0,00 h 78 W/m 12,3 km/h (3 Bft) 94,81 %
19.01.2023 12:00 1,8 C 2,0 C -0,9 C 97 % 1006,4 hPa 0,0 l/m 0,10 h 0,00 h 114 W/m 15,7 km/h (3 Bft) 97,65 %
19.01.2023 13:00 2,7 C 4,7 C -0,5 C 96 % 1006,4 hPa 0,0 l/m 0,47 h 0,00 h 168 W/m 13,1 km/h (3 Bft) 96,96 %
19.01.2023 14:00 2,8 C 2,9 C -0,2 C 95 % 1006,7 hPa 0,0 l/m 0,13 h 0,00 h 103 W/m 13,2 km/h (3 Bft) 97,00 %
19.01.2023 15:00 2,8 C 2,6 C -0,4 C 93 % 1007,0 hPa 0,0 l/m 0,00 h 0,00 h 46 W/m 13,4 km/h (3 Bft) 98,46 %
19.01.2023 16:00 2,3 C 1,8 C -0,9 C 93 % 1007,4 hPa 0,0 l/m 0,00 h 0,00 h 12 W/m 10,6 km/h (2 Bft) 94,13 %
19.01.2023 17:00 1,8 C 0,9 C -1,5 C 93 % 1007,9 hPa 0,0 l/m 0,00 h 0,00 h 0 W/m 6,4 km/h (2 Bft) 97,82 %
19.01.2023 18:00 1,0 C -0,2 C -2,6 C 94 % 1008,3 hPa 0,0 l/m 0,00 h 0,00 h 0 W/m 1,1 km/h (1 Bft) 96,28 %
19.01.2023 19:00 0,7 C -0,3 C -2,6 C 94 % 1008,5 hPa 0,0 l/m 0,00 h 0,00 h 0 W/m 1,5 km/h (1 Bft) 93,25 %
19.01.2023 20:00 0,2 C -1,0 C -3,1 C 95 % 1008,7 hPa 0,0 l/m 0,00 h 0,00 h 0 W/m 1,3 km/h (1 Bft) 97,51 %
19.01.2023 21:00 0,3 C -0,6 C -2,8 C 96 % 1009,2 hPa 0,0 l/m 0,00 h 0,00 h 0 W/m 4,0 km/h (1 Bft) 97,79 %
19.01.2023 22:00 0,1 C -1,0 C -2,8 C 96 % 1010,0 hPa 0,0 l/m 0,00 h 0,00 h 0 W/m 3,8 km/h (1 Bft) 95,13 %
19.01.2023 23:00 -0,0 C -1,0 C -2,8 C 96 % 1010,6 hPa 0,0 l/m 0,00 h 0,00 h 0 W/m 1,7 km/h (1 Bft) 96,41 %
20.01.2023 00:00 -0,3 C -1,0 C -2,8 C 96 % 1011,0 hPa 0,0 l/m 0,00 h 0,00 h 0 W/m 4,9 km/h (1 Bft) 95,12 %
20.01.2023 01:00 0,2 C -0,3 C -2,3 C 97 % 1011,3 hPa 0,0 l/m 0,00 h 0,00 h 0 W/m 7,0 km/h (2 Bft) 96,36 %
20.01.2023 02:00 0,3 C 0,0 C -2,1 C 97 % 1011,9 hPa 0,0 l/m 0,00 h 0,00 h 0 W/m 7,8 km/h (2 Bft) 96,06 %
20.01.2023 03:00 0,3 C 0,0 C -1,7 C 97 % 1012,3 hPa 0,0 l/m 0,00 h 0,00 h 0 W/m 6,2 km/h (2 Bft) 96,52 %
20.01.2023 04:00 0,4 C -0,1 C -1,8 C 97 % 1012,6 hPa 0,0 l/m 0,00 h 0,00 h 0 W/m 4,4 km/h (1 Bft) 98,95 %
20.01.2023 05:00 0,2 C -0,7 C -2,1 C 96 % 1012,9 hPa 0,0 l/m 0,00 h 0,00 h 0 W/m 2,9 km/h (1 Bft) 95,17 %
20.01.2023 06:00 0,3 C 0,0 C -1,7 C 97 % 1013,2 hPa 0,0 l/m 0,00 h 0,00 h 0 W/m 8,6 km/h (2 Bft) 96,14 %
20.01.2023 07:00 0,4 C 0,0 C -1,7 C 96 % 1013,8 hPa 0,0 l/m 0,00 h 0,00 h 0 W/m 7,8 km/h (2 Bft) 96,35 %
20.01.2023 08:00 0,4 C 0,0 C -1,7 C 96 % 1014,2 hPa 0,0 l/m 0,00 h 0,00 h 10 W/m 9,8 km/h (2 Bft) 95,94 %
20.01.2023 09:00 0,6 C 0,5 C -1,1 C 96 % 1014,8 hPa 0,0 l/m 0,03 h 0,00 h 37 W/m 14,4 km/h (3 Bft) 98,86 %
20.01.2023 10:00 1,2 C 1,3 C -0,7 C 95 % 1015,0 hPa 0,0 l/m 0,00 h 0,00 h 74 W/m 10,5 km/h (2 Bft) 94,81 %
20.01.2023 11:00 1,6 C 1,6 C -0,6 C 93 % 1015,3 hPa 0,0 l/m 0,00 h 0,00 h 70 W/m 11,4 km/h (2 Bft) 95,69 %
20.01.2023 12:00 1,8 C 1,3 C -0,6 C 92 % 1015,1 hPa 0,0 l/m 0,00 h 0,00 h 67 W/m 13,3 km/h (3 Bft) 96,27 %
20.01.2023 13:00 1,5 C 0,8 C -1,1 C 94 % 1015,0 hPa 0,2 l/m 0,00 h 0,27 h 34 W/m 12,2 km/h (3 Bft) 97,37 %
20.01.2023 14:00 1,3 C 0,7 C -1,1 C 95 % 1015,2 hPa 0,0 l/m 0,00 h 0,07 h 21 W/m 13,5 km/h (3 Bft) 93,36 %
20.01.2023 15:00 1,2 C 0,9 C -1,1 C 95 % 1015,6 hPa 0,0 l/m 0,00 h 0,00 h 22 W/m 14,9 km/h (3 Bft) 97,72 %
20.01.2023 16:00 1,3 C 1,0 C -1,1 C 96 % 1016,5 hPa 0,0 l/m 0,00 h 0,00 h 12 W/m 13,6 km/h (3 Bft) 96,99 %
20.01.2023 17:00 1,4 C 1,1 C -0,6 C 95 % 1017,5 hPa 0,0 l/m 0,00 h 0,00 h 0 W/m 13,5 km/h (3 Bft) 96,66 %
20.01.2023 18:00 1,2 C 0,4 C -1,4 C 93 % 1018,5 hPa 0,0 l/m 0,00 h 0,00 h 0 W/m 8,4 km/h (2 Bft) 97,26 %
20.01.2023 19:00 0,2 C -1,0 C -2,7 C 92 % 1019,5 hPa 0,0 l/m 0,00 h 0,00 h 0 W/m 5,5 km/h (1 Bft) 98,53 %
20.01.2023 20:00 -0,5 C -1,4 C -3,4 C 93 % 1020,5 hPa 0,0 l/m 0,00 h 0,00 h 0 W/m 3,5 km/h (1 Bft) 95,38 %
20.01.2023 21:00 -0,8 C -1,7 C -3,3 C 94 % 1021,4 hPa 0,0 l/m 0,00 h 0,00 h 0 W/m 4,5 km/h (1 Bft) 97,36 %
20.01.2023 22:00 -0,8 C -1,7 C -3,5 C 94 % 1022,5 hPa 0,0 l/m 0,00 h 0,00 h 0 W/m 5,1 km/h (1 Bft) 96,12 %
20.01.2023 23:00 -0,9 C -1,9 C -3,8 C 94 % 1023,3 hPa 0,0 l/m 0,00 h 0,00 h 0 W/m 4,4 km/h (1 Bft) 98,16 %
21.01.2023 00:00 -1,3 C -2,2 C -4,0 C 94 % 1024,3 hPa 0,0 l/m 0,00 h 0,00 h 0 W/m 5,6 km/h (1 Bft) 96,35 %
21.01.2023 01:00 -1,5 C -2,2 C -4,1 C 95 % 1025,1 hPa 0,0 l/m 0,00 h 0,00 h 0 W/m 7,4 km/h (2 Bft) 97,37 %
21.01.2023 02:00 -1,7 C -2,5 C -4,3 C 95 % 1026,0 hPa 0,0 l/m 0,00 h 0,00 h 0 W/m 6,5 km/h (2 Bft) 97,15 %
21.01.2023 03:00 -1,9 C -2,8 C -4,4 C 95 % 1026,8 hPa 0,0 l/m 0,00 h 0,00 h 0 W/m 6,6 km/h (2 Bft) 93,79 %
21.01.2023 04:00 -2,1 C -2,8 C -4,4 C 96 % 1027,5 hPa 0,0 l/m 0,00 h 0,00 h 0 W/m 8,1 km/h (2 Bft) 98,52 %
21.01.2023 05:00 -2,1 C -3,0 C -4,5 C 96 % 1027,9 hPa 0,0 l/m 0,00 h 0,00 h 0 W/m 6,9 km/h (2 Bft) 95,65 %
21.01.2023 06:00 -2,3 C -3,2 C -4,8 C 96 % 1028,5 hPa 0,0 l/m 0,00 h 0,00 h 0 W/m 6,6 km/h (2 Bft) 94,83 %
21.01.2023 07:00 -2,6 C -3,7 C -5,0 C 96 % 1029,2 hPa 0,0 l/m 0,00 h 0,00 h 0 W/m 2,5 km/h (1 Bft) 97,67 %
21.01.2023 08:00 -3,1 C -4,0 C -5,6 C 96 % 1030,1 hPa 0,0 l/m 0,00 h 0,00 h 9 W/m 1,3 km/h (1 Bft) 96,82 %
21.01.2023 09:00 -2,8 C -2,8 C -4,8 C 96 % 1030,7 hPa 0,0 l/m 0,00 h 0,00 h 40 W/m 3,1 km/h (1 Bft) 95,09 %
21.01.2023 10:00 -1,7 C -1,6 C -3,5 C 97 % 1031,6 hPa 0,0 l/m 0,00 h 0,00 h 48 W/m 5,2 km/h (1 Bft) 96,05 %
21.01.2023 11:00 -1,1 C -0,9 C -2,9 C 97 % 1031,9 hPa 0,0 l/m 0,00 h 0,00 h 53 W/m 3,7 km/h (1 Bft) 98,72 %
21.01.2023 12:00 -0,4 C -0,2 C -2,2 C 97 % 1031,9 hPa 0,0 l/m 0,00 h 0,00 h 62 W/m 5,7 km/h (1 Bft) 94,51 %
21.01.2023 13:00 0,5 C 1,4 C -1,2 C 96 % 1031,6 hPa 0,2 l/m 0,00 h 0,00 h 105 W/m 7,8 km/h (2 Bft) 98,15 %
21.01.2023 14:00 1,6 C 2,2 C -0,6 C 92 % 1031,7 hPa 0,0 l/m 0,00 h 0,00 h 83 W/m 10,0 km/h (2 Bft) 98,86 %
21.01.2023 15:00 1,6 C 1,4 C -1,0 C 89 % 1031,9 hPa 0,0 l/m 0,00 h 0,00 h 24 W/m 11,0 km/h (2 Bft) 93,38 %
21.01.2023 16:00 1,2 C 1,0 C -1,3 C 87 % 1032,3 hPa 0,0 l/m 0,00 h 0,00 h 14 W/m 13,2 km/h (3 Bft) 97,37 %
21.01.2023 17:00 0,9 C 0,6 C -1,7 C 85 % 1032,6 hPa 0,0 l/m 0,00 h 0,00 h 1 W/m 8,4 km/h (2 Bft) 96,40 %
21.01.2023 18:00 0,8 C 0,4 C -2,1 C 85 % 1032,7 hPa 0,0 l/m 0,00 h 0,00 h 0 W/m 7,3 km/h (2 Bft) 95,71 %
21.01.2023 19:00 0,6 C -0,0 C -2,6 C 84 % 1032,9 hPa 0,0 l/m 0,00 h 0,00 h 0 W/m 7,1 km/h (2 Bft) 97,15 %
21.01.2023 20:00 0,4 C -0,5 C -2,8 C 86 % 1032,8 hPa 0,0 l/m 0,00 h 0,00 h 0 W/m 9,5 km/h (2 Bft) 97,84 %
21.01.2023 21:00 0,2 C -0,6 C -2,8 C 89 % 1032,7 hPa 0,0 l/m 0,00 h 0,00 h 0 W/m 10,3 km/h (2 Bft) 95,18 %
21.01.2023 22:00 0,1 C -0,6 C -2,8 C 92 % 1032,7 hPa 0,0 l/m 0,00 h 0,00 h 0 W/m 11,8 km/h (2 Bft) 97,17 %
21.01.2023 23:00 -0,1 C -1,1 C -3,2 C 94 % 1032,5 hPa 0,0 l/m 0,00 h 0,00 h 0 W/m 10,8 km/h (2 Bft) 97,30 %
22.01.2023 00:00 -0,5 C -1,1 C -3,3 C 95 % 1032,3 hPa 0,0 l/m 0,00 h 0,00 h 0 W/m 13,6 km/h (3 Bft) 97,57 %
22.01.2023 01:00 -0,5 C -1,1 C -3,3 C 95 % 1032,0 hPa 0,0 l/m 0,00 h 0,00 h 0 W/m 14,3 km/h (3 Bft) 96,06 %
22.01.2023 02:00 -0,3 C -0,7 C -2,8 C 95 % 1031,7 hPa 0,0 l/m 0,00 h 0,00 h 0 W/m 14,2 km/h (3 Bft) 98,52 %
22.01.2023 03:00 -0,2 C -0,6 C -2,8 C 94 % 1031,5 hPa 0,0 l/m 0,00 h 0,00 h 0 W/m 14,1 km/h (3 Bft) 96,80 %
22.01.2023 04:00 -0,2 C -0,6 C -2,8 C 94 % 1031,3 hPa 0,0 l/m 0,00 h 0,00 h 0 W/m 14,1 km/h (3 Bft) 96,97 %
22.01.2023 05:00 -0,4 C -1,1 C -3,0 C 94 % 1031,1 hPa 0,0 l/m 0,00 h 0,00 h 0 W/m 12,2 km/h (3 Bft) 99,29 %
22.01.2023 06:00 -0,5 C -1,1 C -3,0 C 94 % 1031,1 hPa 0,0 l/m 0,00 h 0,00 h 0 W/m 14,1 km/h (3 Bft) 94,34 %
22.01.2023 07:00 -0,3 C -0,9 C -2,8 C 95 % 1031,2 hPa 0,0 l/m 0,00 h 0,00 h 0 W/m 12,7 km/h (3 Bft) 97,96 %
22.01.2023 08:00 -0,2 C -0,6 C -2,8 C 94 % 1031,5 hPa 0,0 l/m 0,00 h 0,00 h 6 W/m 13,2 km/h (3 Bft) 96,20 %
22.01.2023 09:00 -0,1 C -0,5 C -2,6 C 94 % 1031,9 hPa 0,0 l/m 0,00 h 0,00 h 17 W/m 12,3 km/h (3 Bft) 96,42 %
22.01.2023 10:00 0,1 C 0,0 C -2,2 C 94 % 1032,1 hPa 0,0 l/m 0,00 h 0,00 h 29 W/m 12,6 km/h (3 Bft) 96,95 %
22.01.2023 11:00 0,5 C 0,5 C -1,9 C 94 % 1032,0 hPa 0,0 l/m 0,00 h 0,00 h 75 W/m 11,5 km/h (2 Bft) 97,90 %
22.01.2023 12:00 0,9 C 1,0 C -1,7 C 94 % 1031,8 hPa 0,0 l/m 0,00 h 0,00 h 77 W/m 11,0 km/h (2 Bft) 95,29 %
22.01.2023 13:00 0,9 C 0,7 C -1,7 C 94 % 1031,8 hPa 0,0 l/m 0,00 h 0,00 h 45 W/m 11,8 km/h (2 Bft) 97,86 %
22.01.2023 14:00 1,1 C 0,9 C -1,7 C 94 % 1031,8 hPa 0,0 l/m 0,00 h 0,00 h 43 W/m 12,4 km/h (3 Bft) 97,30 %
22.01.2023 15:00 1,1 C 0,7 C -1,7 C 94 % 1032,1 hPa 0,0 l/m 0,00 h 0,00 h 22 W/m 10,5 km/h (2 Bft) 97,80 %
22.01.2023 16:00 1,1 C 0,6 C -1,7 C 94 % 1032,5 hPa 0,0 l/m 0,00 h 0,00 h 8 W/m 9,4 km/h (2 Bft) 94,59 %
22.01.2023 17:00 1,0 C 0,6 C -1,7 C 94 % 1032,6 hPa 0,0 l/m 0,00 h 0,00 h 0 W/m 7,0 km/h (2 Bft) 98,82 %
22.01.2023 18:00 1,1 C 0,6 C -1,7 C 94 % 1032,8 hPa 0,0 l/m 0,00 h 0,00 h 0 W/m 7,2 km/h (2 Bft) 95,94 %
22.01.2023 19:00 1,1 C 0,6 C -1,7 C 94 % 1033,2 hPa 0,0 l/m 0,00 h 0,00 h 0 W/m 7,2 km/h (2 Bft) 97,01 %
22.01.2023 20:00 1,1 C 0,6 C -1,7 C 95 % 1033,5 hPa 0,0 l/m 0,00 h 0,00 h 0 W/m 5,8 km/h (2 Bft) 97,72 %
22.01.2023 21:00 1,2 C 0,6 C -1,7 C 95 % 1033,9 hPa 0,0 l/m 0,00 h 0,00 h 0 W/m 2,9 km/h (1 Bft) 93,67 %
22.01.2023 22:00 1,3 C 0,6 C -1,2 C 95 % 1034,0 hPa 0,0 l/m 0,00 h 0,00 h 0 W/m 3,1 km/h (1 Bft) 96,56 %
22.01.2023 23:00 1,4 C 0,6 C -1,1 C 95 % 1034,2 hPa 0,0 l/m 0,00 h 0,00 h 0 W/m 3,1 km/h (1 Bft) 96,57 %
Min-Datum _ 18.01.23 18.01.23 18.01.23 17.01.23 16.01.23 - - - - 17.01.23 17.01.23
_ Min-Zeit 05:32 05:30 06:52 13:42 16:50 - - - - 07:00 07:10
Minimum _ -4,1 C -5,0 C -6,7 C 76 % 977,4 hPa - - - - 0,0 km/h (0 Bft) 6,38 %
Max-Datum _ 16.01.23 17.01.23 16.01.23 16.01.23 22.01.23 17.01.23 18.01.23 17.01.23 18.01.23 16.01.23 16.01.23
_ Max-Zeit 00:40 13:26 12:44 19:12 23:46 01:16 13:56 00:12 13:04 09:38 01:04
Maximum _ 6,0 C 12,2 C 2,2 C 97 % 1034,3 hPa 1,4 l/m 0,08 h 0,07 h 339 W/m 45,1 km/h
S-SO (6 Bft)
100,00 %
Durchschnitt _ 1,1 C 0,6 C -1,9 C 92 % 1007,7 hPa #11,2 l/m #6:53 h #14:38 h 65 W/m 10,6 km/h (2 Bft) 96,38 %
© 2023 W. Hausmann